createdAt,value
2022-08-08T00:02:03.979Z,23.71
2022-08-08T00:04:31.420Z,23.66
2022-08-08T00:07:16.167Z,23.54
2022-08-08T00:10:13.299Z,23.60
2022-08-08T00:12:56.340Z,23.63
2022-08-08T00:15:57.725Z,23.63
2022-08-08T00:18:25.078Z,23.63
2022-08-08T00:20:57.967Z,23.59
2022-08-08T00:23:28.329Z,23.56
2022-08-08T00:26:13.057Z,23.55
2022-08-08T00:28:47.286Z,23.46
2022-08-08T00:32:21.408Z,23.38
2022-08-08T00:34:51.401Z,23.45
2022-08-08T00:37:47.484Z,23.41
2022-08-08T00:41:09.729Z,23.43
2022-08-08T00:43:40.920Z,23.39
2022-08-08T00:46:25.783Z,23.32
2022-08-08T00:49:22.808Z,23.34
2022-08-08T00:51:55.599Z,23.33
2022-08-08T00:54:33.361Z,23.26
2022-08-08T00:57:48.718Z,23.25
2022-08-08T01:00:28.146Z,23.32
2022-08-08T01:03:58.499Z,23.29
2022-08-08T01:06:27.304Z,23.22
2022-08-08T01:09:35.417Z,23.20
2022-08-08T01:12:44.340Z,23.17
2022-08-08T01:15:43.979Z,23.07
2022-08-08T01:18:25.607Z,23.00
2022-08-08T01:21:35.138Z,22.97
2022-08-08T01:24:53.738Z,23.01
2022-08-08T01:27:47.079Z,22.99
2022-08-08T01:30:53.629Z,23.03
2022-08-08T01:34:01.064Z,22.95
2022-08-08T01:36:50.781Z,22.97
2022-08-08T01:39:41.975Z,23.02
2022-08-08T01:42:20.618Z,22.94
2022-08-08T01:45:50.379Z,22.92
2022-08-08T01:48:43.787Z,22.93
2022-08-08T01:52:42.642Z,22.84
2022-08-08T01:55:25.814Z,22.82
2022-08-08T01:58:12.545Z,22.76
2022-08-08T02:00:58.988Z,22.72
2022-08-08T02:03:49.340Z,22.56
2022-08-08T02:06:56.125Z,22.64
2022-08-08T02:10:03.511Z,22.52
2022-08-08T02:13:05.014Z,22.48
2022-08-08T02:15:45.545Z,22.47
2022-08-08T02:18:33.098Z,22.47
2022-08-08T02:21:29.697Z,22.44
2022-08-08T02:24:10.016Z,22.44
2022-08-08T02:26:57.948Z,22.28
2022-08-08T02:29:41.734Z,22.33
2022-08-08T02:32:30.139Z,22.33
2022-08-08T02:35:24.014Z,22.31
2022-08-08T02:38:25.256Z,22.20
2022-08-08T02:42:04.449Z,22.11
2022-08-08T02:44:56.709Z,22.10
2022-08-08T02:47:51.961Z,22.04
2022-08-08T02:50:24.625Z,22.00
2022-08-08T02:53:10.295Z,22.01
2022-08-08T02:56:15.489Z,22.00
2022-08-08T02:59:02.704Z,21.99
2022-08-08T03:02:20.084Z,21.91
2022-08-08T03:05:12.396Z,21.89
2022-08-08T03:07:59.291Z,21.88
2022-08-08T03:11:05.133Z,21.88
2022-08-08T03:16:00.414Z,21.72
2022-08-08T03:17:25.560Z,21.70
2022-08-08T03:20:10.395Z,21.64
2022-08-08T03:22:56.265Z,21.60
2022-08-08T03:25:35.779Z,21.66
2022-08-08T03:28:07.991Z,21.64
2022-08-08T03:30:35.367Z,21.52
2022-08-08T03:34:00.496Z,21.54
2022-08-08T03:36:10.504Z,21.50
2022-08-08T03:38:58.404Z,21.39
2022-08-08T03:42:12.190Z,21.39
2022-08-08T03:44:25.777Z,21.20
2022-08-08T03:46:53.124Z,21.29
2022-08-08T03:49:56.731Z,21.28
2022-08-08T03:52:13.048Z,21.14
2022-08-08T03:55:02.583Z,21.24
2022-08-08T03:58:33.347Z,21.32
2022-08-08T04:00:22.031Z,21.28
2022-08-08T04:03:04.392Z,21.32
2022-08-08T04:05:39.919Z,21.29
2022-08-08T04:08:33.346Z,21.25
2022-08-08T04:11:11.027Z,21.69
2022-08-08T04:14:03.943Z,21.84
2022-08-08T04:16:40.486Z,21.96
2022-08-08T04:19:23.454Z,22.21
2022-08-08T04:21:52.681Z,22.44
2022-08-08T04:24:28.491Z,22.66
2022-08-08T04:26:58.732Z,22.88
2022-08-08T04:29:26.876Z,22.72
2022-08-08T04:31:58.612Z,22.71
2022-08-08T04:34:32.338Z,22.57
2022-08-08T04:37:11.439Z,22.61
2022-08-08T04:40:03.440Z,22.69
2022-08-08T04:42:27.320Z,22.92
2022-08-08T04:44:57.322Z,22.99
2022-08-08T04:47:24.534Z,23.12
2022-08-08T04:50:00.939Z,23.11
2022-08-08T04:52:35.375Z,23.14
2022-08-08T04:55:04.398Z,23.28
2022-08-08T04:57:34.471Z,23.32
2022-08-08T05:00:02.297Z,23.18
2022-08-08T05:02:34.862Z,23.31
2022-08-08T05:05:02.436Z,23.21
2022-08-08T05:07:38.198Z,23.30
2022-08-08T05:10:12.322Z,23.20
2022-08-08T05:12:59.811Z,23.18
2022-08-08T05:16:48.401Z,23.23
2022-08-08T05:18:16.094Z,23.23
2022-08-08T05:20:49.817Z,23.23
2022-08-08T05:23:17.761Z,23.61
2022-08-08T05:25:44.597Z,23.91
2022-08-08T05:28:14.851Z,23.82
2022-08-08T05:30:47.026Z,23.95
2022-08-08T05:33:20.196Z,23.83
2022-08-08T05:35:54.094Z,23.83
2022-08-08T05:38:30.559Z,23.72
2022-08-08T05:41:06.126Z,23.63
2022-08-08T05:44:02.440Z,23.56
2022-08-08T05:46:25.518Z,23.74
2022-08-08T05:48:55.238Z,23.96
2022-08-08T05:51:22.689Z,23.15
2022-08-08T05:54:28.245Z,23.08
2022-08-08T05:56:48.361Z,23.65
2022-08-08T05:59:53.634Z,22.96
2022-08-08T06:02:40.917Z,23.83
2022-08-08T06:05:24.397Z,23.55
2022-08-08T06:08:10.495Z,24.36
2022-08-08T06:11:33.850Z,24.67
2022-08-08T06:14:29.341Z,24.44
2022-08-08T06:17:01.010Z,23.70
2022-08-08T06:19:35.275Z,24.34
2022-08-08T06:22:32.237Z,24.16
2022-08-08T06:24:51.281Z,24.53
2022-08-08T06:27:36.190Z,25.25
2022-08-08T06:30:11.772Z,24.71
2022-08-08T06:33:12.115Z,25.44
2022-08-08T06:36:06.095Z,25.67
2022-08-08T06:38:39.355Z,25.30
2022-08-08T06:41:13.465Z,25.90
2022-08-08T06:43:47.758Z,26.32
2022-08-08T06:46:24.299Z,26.51
2022-08-08T06:48:51.557Z,25.76
2022-08-08T06:51:21.140Z,26.57
2022-08-08T06:53:51.182Z,26.52
2022-08-08T06:56:24.223Z,26.78
2022-08-08T06:58:51.078Z,26.75
2022-08-08T07:02:17.322Z,27.17
2022-08-08T07:04:37.034Z,27.46
2022-08-08T07:07:10.570Z,27.48
2022-08-08T07:09:56.588Z,27.86
2022-08-08T07:12:47.574Z,27.84
2022-08-08T07:16:05.439Z,27.65
2022-08-08T07:18:37.114Z,28.09
2022-08-08T07:21:19.319Z,28.42
2022-08-08T07:24:13.453Z,28.60
2022-08-08T07:26:43.697Z,28.65
2022-08-08T07:29:54.642Z,28.76
2022-08-08T07:32:03.543Z,28.97
2022-08-08T07:35:51.362Z,29.21
2022-08-08T07:38:31.195Z,29.29
2022-08-08T07:41:23.645Z,29.02
2022-08-08T07:44:37.032Z,28.63
2022-08-08T07:47:06.124Z,29.27
2022-08-08T07:49:49.630Z,28.83
2022-08-08T07:52:35.162Z,28.97
2022-08-08T07:55:52.830Z,29.12
2022-08-08T07:58:34.340Z,29.96
2022-08-08T08:01:12.403Z,29.97
2022-08-08T08:04:13.740Z,30.38
2022-08-08T08:06:43.104Z,30.44
2022-08-08T08:09:26.587Z,29.65
2022-08-08T08:11:56.392Z,29.89
2022-08-08T08:14:45.815Z,30.71
2022-08-08T08:17:18.768Z,29.66
2022-08-08T08:26:27.356Z,30.24
2022-08-08T08:29:53.450Z,31.21
2022-08-08T08:32:35.721Z,30.28
2022-08-08T08:35:21.490Z,31.26
2022-08-08T08:41:17.769Z,30.08
2022-08-08T08:43:49.332Z,30.96
2022-08-08T08:46:18.925Z,30.87
2022-08-08T08:48:49.115Z,31.25
2022-08-08T08:51:17.864Z,31.08
2022-08-08T08:53:56.431Z,31.40
2022-08-08T08:56:28.495Z,31.22
2022-08-08T08:58:58.335Z,31.50
2022-08-08T09:01:33.165Z,31.73
2022-08-08T09:04:32.176Z,31.86
2022-08-08T09:07:12.875Z,32.19
2022-08-08T09:09:57.671Z,32.32
2022-08-08T09:12:28.521Z,32.39
2022-08-08T09:14:59.754Z,32.46
2022-08-08T09:18:22.164Z,32.36
2022-08-08T09:22:00.536Z,32.42
2022-08-08T09:23:43.887Z,31.34
2022-08-08T09:26:39.565Z,31.80
2022-08-08T09:32:50.274Z,32.77
2022-08-08T09:35:49.910Z,32.11
2022-08-08T09:38:54.915Z,32.62
2022-08-08T09:41:54.749Z,32.76
2022-08-08T09:44:49.427Z,32.84
2022-08-08T09:48:02.553Z,32.00
2022-08-08T09:50:13.967Z,32.10
2022-08-08T09:52:59.289Z,31.89
2022-08-08T09:56:07.042Z,32.79
2022-08-08T09:58:44.611Z,32.20
2022-08-08T10:01:14.610Z,33.16
2022-08-08T10:04:02.402Z,33.33
2022-08-08T10:06:32.253Z,33.55
2022-08-08T10:09:00.164Z,33.59
2022-08-08T10:12:27.102Z,33.54
2022-08-08T10:14:28.468Z,33.69
2022-08-08T10:18:05.826Z,33.75
2022-08-08T10:20:00.561Z,33.60
2022-08-08T10:22:29.643Z,33.60
2022-08-08T10:25:04.532Z,33.40
2022-08-08T10:27:41.746Z,33.39
2022-08-08T10:30:16.447Z,33.31
2022-08-08T10:33:00.314Z,33.40
2022-08-08T10:36:08.127Z,33.27
2022-08-08T10:38:19.694Z,33.57
2022-08-08T10:40:52.054Z,33.60
2022-08-08T10:43:22.933Z,33.80
2022-08-08T10:45:57.139Z,33.94
2022-08-08T10:48:38.719Z,33.91
2022-08-08T10:51:25.930Z,33.94
2022-08-08T10:53:56.776Z,33.70
2022-08-08T10:56:32.377Z,33.76
2022-08-08T10:59:08.200Z,33.93
2022-08-08T11:01:38.842Z,33.86
2022-08-08T11:04:10.508Z,34.04
2022-08-08T11:06:42.063Z,34.06
2022-08-08T11:09:19.436Z,34.14
2022-08-08T11:12:04.539Z,34.15
2022-08-08T11:14:35.528Z,33.97
2022-08-08T11:17:03.911Z,33.88
2022-08-08T11:19:33.973Z,33.82
2022-08-08T11:22:04.178Z,33.79
2022-08-08T11:24:36.051Z,33.80
2022-08-08T11:27:19.285Z,33.99
2022-08-08T11:30:04.450Z,33.92
2022-08-08T11:32:41.260Z,33.90
2022-08-08T11:35:25.945Z,34.01
2022-08-08T11:38:38.720Z,34.25
2022-08-08T11:40:52.543Z,34.17
2022-08-08T11:43:42.204Z,34.19
2022-08-08T11:46:14.247Z,34.13
2022-08-08T11:48:47.122Z,33.94
2022-08-08T11:51:29.525Z,33.85
2022-08-08T11:54:26.806Z,34.06
2022-08-08T11:56:56.415Z,34.20
2022-08-08T12:00:00.421Z,34.26
2022-08-08T12:02:33.418Z,34.04
2022-08-08T12:05:06.908Z,33.86
2022-08-08T12:07:51.147Z,33.97
2022-08-08T12:10:27.505Z,33.91
2022-08-08T12:13:05.825Z,33.87
2022-08-08T12:15:41.891Z,33.78
2022-08-08T12:18:16.099Z,33.71
2022-08-08T12:20:56.586Z,34.02
2022-08-08T12:23:40.307Z,33.81
2022-08-08T12:26:27.761Z,34.08
2022-08-08T12:29:04.648Z,33.21
2022-08-08T12:31:39.089Z,33.85
2022-08-08T12:34:36.680Z,33.68
2022-08-08T12:37:08.538Z,33.67
2022-08-08T12:39:58.177Z,33.38
2022-08-08T12:42:26.462Z,34.13
2022-08-08T12:45:59.937Z,34.39
2022-08-08T12:48:36.606Z,34.34
2022-08-08T12:51:11.250Z,34.26
2022-08-08T12:53:58.633Z,34.27
2022-08-08T12:56:37.410Z,34.24
2022-08-08T12:59:16.548Z,34.24
2022-08-08T13:01:55.026Z,34.26
2022-08-08T13:04:26.566Z,34.23
2022-08-08T13:06:56.086Z,34.04
2022-08-08T13:09:43.165Z,33.92
2022-08-08T13:12:35.779Z,33.89
2022-08-08T13:15:09.276Z,33.91
2022-08-08T13:18:08.298Z,33.94
2022-08-08T13:20:27.509Z,33.84
2022-08-08T13:23:29.968Z,33.59
2022-08-08T13:25:48.894Z,33.81
2022-08-08T13:28:32.251Z,33.45
2022-08-08T13:31:04.127Z,33.81
2022-08-08T13:33:42.828Z,33.97
2022-08-08T13:36:17.170Z,34.32
2022-08-08T13:38:45.311Z,34.32
2022-08-08T13:41:16.445Z,34.25
2022-08-08T13:43:49.916Z,33.86
2022-08-08T13:46:26.563Z,33.86
2022-08-08T13:50:33.200Z,33.58
2022-08-08T13:52:02.881Z,33.58
2022-08-08T13:54:44.139Z,33.50
2022-08-08T13:57:16.036Z,33.42
2022-08-08T13:59:49.041Z,33.28
2022-08-08T14:02:32.854Z,33.00
2022-08-08T14:05:20.483Z,32.99
2022-08-08T14:08:06.464Z,32.25
2022-08-08T14:10:45.831Z,31.12
2022-08-08T14:20:15.609Z,30.45
2022-08-08T14:26:40.752Z,30.69
2022-08-08T14:29:30.798Z,30.67
2022-08-08T14:32:11.868Z,30.48
2022-08-08T14:35:04.770Z,30.31
2022-08-08T14:37:59.597Z,29.91
2022-08-08T14:40:50.383Z,29.23
2022-08-08T14:44:01.821Z,28.23
2022-08-08T14:46:44.799Z,27.55
2022-08-08T14:50:02.522Z,26.98
2022-08-08T14:53:16.994Z,26.78
2022-08-08T14:56:02.147Z,26.85
2022-08-08T14:58:50.752Z,26.66
2022-08-08T15:01:24.485Z,26.82
2022-08-08T15:05:08.307Z,26.62
2022-08-08T15:07:53.856Z,26.20
2022-08-08T15:10:46.765Z,26.26
2022-08-08T15:13:40.136Z,26.40
2022-08-08T15:16:48.746Z,26.48
2022-08-08T15:19:42.790Z,26.85
2022-08-08T15:22:38.030Z,26.58
2022-08-08T15:25:29.114Z,26.20
2022-08-08T15:28:33.891Z,26.17
2022-08-08T15:32:02.860Z,26.13
2022-08-08T15:46:14.012Z,25.12
2022-08-08T15:59:18.939Z,23.05
2022-08-08T16:02:13.154Z,22.42
2022-08-08T16:05:00.773Z,22.77
2022-08-08T16:13:09.378Z,22.00
2022-08-08T16:14:39.752Z,22.12
2022-08-08T16:18:06.556Z,22.65
2022-08-08T16:33:04.815Z,21.87
2022-08-08T16:36:01.005Z,21.32
2022-08-08T16:42:22.830Z,22.36
2022-08-08T16:49:38.464Z,22.28
2022-08-08T16:56:32.844Z,21.31
2022-08-08T17:19:57.789Z,22.04
2022-08-08T17:22:57.272Z,22.12
2022-08-08T17:25:53.718Z,21.95
2022-08-08T17:28:49.494Z,21.76
2022-08-08T17:31:46.222Z,22.11
2022-08-08T17:35:52.157Z,22.26
2022-08-08T17:37:54.917Z,21.98
2022-08-08T17:40:42.788Z,21.98
2022-08-08T17:43:28.226Z,23.06
2022-08-08T17:46:42.781Z,21.92
2022-08-08T17:49:28.574Z,23.12
2022-08-08T17:52:37.454Z,22.34
2022-08-08T17:56:06.887Z,22.41
2022-08-08T17:58:19.851Z,21.92
2022-08-08T18:01:46.620Z,22.98
2022-08-08T18:04:49.386Z,21.74
2022-08-08T18:08:01.790Z,21.61
2022-08-08T18:10:48.838Z,22.65
2022-08-08T18:13:48.745Z,22.95
2022-08-08T18:20:44.234Z,22.80
2022-08-08T18:23:55.742Z,23.32
2022-08-08T18:26:54.613Z,23.36
2022-08-08T18:33:02.470Z,22.15
2022-08-08T18:39:16.424Z,22.95
2022-08-08T18:42:15.897Z,23.24
2022-08-08T18:45:44.974Z,23.58
2022-08-08T18:51:48.838Z,23.29
2022-08-08T18:54:29.956Z,22.95
2022-08-08T18:57:16.878Z,22.53
2022-08-08T19:00:15.826Z,23.28
2022-08-08T19:03:15.891Z,23.58
2022-08-08T19:06:09.798Z,23.72
2022-08-08T19:08:57.924Z,23.39
2022-08-08T19:11:46.351Z,23.95
2022-08-08T19:14:42.827Z,23.60
2022-08-08T19:17:48.192Z,24.00
2022-08-08T19:20:39.224Z,23.96
2022-08-08T19:23:26.984Z,24.14
2022-08-08T19:26:28.768Z,23.83
2022-08-08T19:29:11.966Z,24.20
2022-08-08T19:31:53.854Z,23.27
2022-08-08T19:34:45.773Z,23.88
2022-08-08T19:37:43.148Z,24.18
2022-08-08T19:40:32.732Z,23.71
2022-08-08T19:43:11.815Z,23.79
2022-08-08T19:46:05.696Z,23.85
2022-08-08T19:48:59.890Z,23.55
2022-08-08T19:51:53.982Z,23.16
2022-08-08T19:54:43.114Z,23.23
2022-08-08T19:57:21.581Z,23.02
2022-08-08T20:00:11.244Z,22.22
2022-08-08T20:04:01.566Z,22.17
2022-08-08T20:06:18.120Z,22.47
2022-08-08T20:09:08.609Z,21.98
2022-08-08T20:11:52.814Z,21.82
2022-08-08T20:15:00.227Z,22.84
2022-08-08T20:17:40.822Z,22.15
2022-08-08T20:20:37.654Z,22.21
2022-08-08T20:23:46.174Z,22.31
2022-08-08T20:26:34.308Z,22.28
2022-08-08T20:29:11.202Z,22.16
2022-08-08T20:32:08.201Z,21.78
2022-08-08T20:35:02.136Z,21.61
2022-08-08T20:37:54.820Z,21.21
2022-08-08T20:40:38.684Z,21.43
2022-08-08T20:43:44.290Z,21.85
2022-08-08T20:46:21.151Z,21.79
2022-08-08T20:49:13.740Z,21.13
2022-08-08T20:51:50.836Z,21.12
2022-08-08T20:54:44.312Z,21.65
2022-08-08T20:57:26.924Z,21.56
2022-08-08T21:00:21.728Z,21.92
2022-08-08T21:03:17.355Z,21.87
2022-08-08T21:05:59.152Z,21.62
2022-08-08T21:08:49.570Z,21.69
2022-08-08T21:11:50.761Z,21.89
2022-08-08T21:14:50.774Z,21.83
2022-08-08T21:21:06.355Z,21.78
2022-08-08T21:27:15.227Z,21.89
2022-08-08T21:30:21.999Z,21.90
2022-08-08T21:32:56.871Z,21.81
2022-08-08T21:36:18.357Z,21.96
2022-08-08T21:38:36.808Z,22.07
2022-08-08T21:41:38.457Z,21.89
2022-08-08T21:44:23.084Z,21.77
2022-08-08T21:48:06.767Z,21.87
2022-08-08T21:50:35.058Z,21.87
2022-08-08T21:54:27.407Z,21.97
2022-08-08T21:56:31.054Z,21.65
2022-08-08T21:59:22.923Z,21.62
2022-08-08T22:02:04.156Z,21.81
2022-08-08T22:05:10.999Z,21.96
2022-08-08T22:07:49.887Z,21.91
2022-08-08T22:10:42.004Z,21.77
2022-08-08T22:13:43.399Z,22.02
2022-08-08T22:16:38.824Z,21.96
2022-08-08T22:19:23.615Z,22.01
2022-08-08T22:22:17.711Z,22.06
2022-08-08T22:25:04.749Z,22.01
2022-08-08T22:28:04.167Z,21.62
2022-08-08T22:31:03.791Z,21.97
2022-08-08T22:37:00.725Z,21.55
2022-08-08T22:40:00.461Z,21.60
2022-08-08T22:42:35.387Z,21.20
2022-08-08T22:45:21.764Z,21.45
2022-08-08T22:48:15.977Z,21.14
2022-08-08T22:51:09.699Z,21.32
2022-08-08T22:54:30.992Z,21.32
2022-08-08T22:57:11.552Z,21.06
2022-08-08T22:59:59.589Z,21.06
2022-08-08T23:02:53.761Z,20.99
2022-08-08T23:05:49.626Z,20.80
2022-08-08T23:08:23.862Z,20.99
2022-08-08T23:11:13.232Z,21.14
2022-08-08T23:13:53.847Z,20.99
2022-08-08T23:16:57.955Z,21.12
2022-08-08T23:19:36.049Z,21.17
2022-08-08T23:22:25.785Z,21.22
2022-08-08T23:24:59.836Z,21.06
2022-08-08T23:27:46.812Z,21.19
2022-08-08T23:30:22.134Z,20.99
2022-08-08T23:33:01.797Z,21.25
2022-08-08T23:36:06.755Z,21.27
2022-08-08T23:38:44.636Z,21.20
2022-08-08T23:41:46.238Z,20.97
2022-08-08T23:44:21.145Z,21.24
2022-08-08T23:49:04.180Z,21.18
2022-08-08T23:50:36.694Z,21.17
2022-08-08T23:54:06.136Z,21.18
2022-08-08T23:56:31.854Z,20.96
2022-08-08T23:59:16.854Z,21.12
